Flight Track Log - Related Links

Times and Time Zones

All times are in EDT time to prevent confusion due to time zone crossing. See the EJA941 flight status page for this flight to view local times or setup timezone preferences in your user account.

Time Position Orientation Groundspeed Altitude Reporting Facility
EDT Latitude Longitude Course Direction KTS MPH feet Rate Location/Type
Wed 05:38:00 PM 23.3855 -80.6585 North  Level Estimated
Wed 05:39:00 PM 23.5133 -80.6360 North  Level Estimated
Wed 05:40:00 PM 23.6412 -80.6134 North  Level Estimated
Wed 05:41:00 PM 23.7690 -80.5908 North  Level Estimated
Wed 05:41:30 PM 23.2511 -81.2586 North 512 589 40,000  Level Miami Center
Wed 05:42:00 PM 23.8968 -80.5682 North  Level Estimated
Wed 05:42:30 PM 23.3914 -81.2497 North 512 589 40,000  Level Miami Center
Wed 05:43:00 PM 24.0247 -80.5455 North  Level Estimated
Wed 05:43:30 PM 23.5272 -81.2453 North 497 572 40,000  Level Miami Center
Wed 05:44:00 PM 24.1525 -80.5228 North  Level Estimated
Wed 05:44:30 PM 23.6611 -81.2342 North 485 558 40,000  Level Miami Center
Wed 05:45:00 PM 24.2803 -80.5000 North  Level Estimated
Wed 05:45:30 PM 23.7972 -81.2253 North 485 558 40,000  Level Miami Center
Wed 05:46:00 PM 24.4081 -80.4771 North  Level Estimated
Wed 05:46:30 PM 23.9353 -81.2208 North 485 558 40,000  Level Miami Center
Wed 05:47:30 PM 24.0717 -81.2006 North 485 558 40,000 350 Level Miami Center
Wed 05:48:30 PM 24.2039 -81.1756 10° North 485 558 40,700 500 Climbing Miami Center
Wed 05:49:30 PM 24.3383 -81.1506 10° North 480 552 41,000 100 Climbing Miami Center
Wed 05:51:30 PM 24.6089 -81.1028 North 485 558 41,000  Level Miami Center
Wed 05:52:30 PM 24.7433 -81.0775 10° North 485 558 41,000  Level Miami Center
Wed 05:53:30 PM 24.8800 -81.0503 10° North 485 558 41,000 300 Level Miami Center
Wed 05:54:30 PM 25.0164 -81.0297 North 485 558 41,600 600 Climbing Miami Center
Wed 05:55:30 PM 25.1486 -81.0019 11° North 485 558 42,200 650 Climbing Miami Center
Wed 05:56:30 PM 25.2831 -80.9792 North 485 558 42,900 400 Climbing Miami Center
Wed 05:57:30 PM 25.4131 -80.9536 10° North 480 552 43,000 50 Climbing Miami Center
Wed 05:58:30 PM 25.5400 -80.9025 20° North 480 552 43,000 400 Level Miami Center
Wed 05:59:30 PM 25.6625 -80.8444 23° Northeast 475 547 43,800 750 Climbing Miami Center
Wed 06:00:30 PM 25.7786 -80.8067 16° North 475 547 44,500 600 Climbing Miami Center
Wed 06:01:30 PM 25.9069 -80.7694 15° North 475 547 45,000 250 Climbing Miami Center
Wed 06:02:30 PM 26.0353 -80.7367 13° North 463 533 45,000  Level Miami Center
Wed 06:03:30 PM 26.1692 -80.7247 North 470 541 45,000  Level Miami Center
Wed 06:04:30 PM 26.3092 -80.7247 360° North 463 533 45,000  Level Miami Center
Wed 06:05:30 PM 26.4278 -80.7425 352° North 463 533 45,000 250 Level Miami Center
Wed 06:06:30 PM 26.5692 -80.7658 352° North 461 531 45,500 500 Climbing Miami Center
Wed 06:07:30 PM 26.6936 -80.7908 350° North 461 531 46,000 250 Climbing Miami Center
Wed 06:08:30 PM 26.8225 -80.8161 350° North 461 531 46,000  Level Miami Center
Wed 06:09:30 PM 26.9492 -80.8436 349° North 466 536 46,000  Level Miami Center
Wed 06:10:30 PM 27.0767 -80.8364 North 450 518 46,000  Level Miami Center
Wed 06:11:30 PM 27.2031 -80.7964 16° North 456 525 46,000 -50 Level Miami Center
Wed 06:12:30 PM 27.3292 -80.7608 14° North 461 531 45,900  Descending Miami Center
Wed 06:13:30 PM 27.4575 -80.7256 14° North 466 536 46,000 50 Climbing Miami Center
Wed 06:14:30 PM 27.5878 -80.6900 14° North 471 542 46,000  Level Miami Center
Wed 06:15:30 PM 27.7036 -80.6564 14° North 471 542 46,000  Level Miami Center
Wed 06:16:30 PM 27.8297 -80.6208 14° North 471 542 46,000  Level Miami Center
Wed 06:17:30 PM 27.9789 -80.5833 13° North 477 549 46,000  Level Miami Center
Wed 06:18:30 PM 28.1092 -80.5547 11° North 477 549 46,000  Level Miami Center
Wed 06:19:30 PM 28.2392 -80.5283 10° North 471 542 46,000  Level Miami Center
Wed 06:20:30 PM 28.3689 -80.5161 North 471 542 46,000  Level Miami Center
Wed 06:21:30 PM 28.4939 -80.5247 357° North 471 542 46,000  Level Miami Center
Wed 06:23:36 PM 28.7858 -80.5475 356° North 481 554 46,000  Level Jacksonville Center
Wed 06:24:36 PM 28.9136 -80.5775 348° North 481 554 46,000  Level Jacksonville Center
Wed 06:25:36 PM 29.0439 -80.6125 347° North 476 548 46,000  Level Jacksonville Center
Wed 06:26:36 PM 29.1611 -80.6456 346° North 476 548 46,000  Level Jacksonville Center
Wed 06:27:36 PM 29.2892 -80.6878 344° North 481 554 46,000  Level Jacksonville Center
Wed 06:28:36 PM 29.4192 -80.7183 348° North 481 554 46,000  Level Jacksonville Center
Wed 06:29:36 PM 29.5408 -80.7467 349° North 467 537 46,000  Level Jacksonville Center
Wed 06:30:36 PM 29.6686 -80.7747 349° North 460 529 46,000  Level Jacksonville Center
Wed 06:31:36 PM 29.7986 -80.8078 348° North 460 529 46,000  Level Jacksonville Center
Wed 06:32:36 PM 29.9306 -80.8386 349° North 475 547 46,000  Level Jacksonville Center
Wed 06:33:36 PM 30.0625 -80.8694 349° North 475 547 46,000  Level Jacksonville Center
Wed 06:34:36 PM 30.1925 -80.9003 348° North 475 547 46,000  Level Jacksonville Center
Wed 06:35:36 PM 30.3225 -80.9289 349° North 469 540 46,000  Level Jacksonville Center
Wed 06:36:36 PM 30.4544 -80.9600 349° North 474 545 46,000  Level Jacksonville Center
Wed 06:37:36 PM 30.5842 -80.9911 348° North 474 545 46,000  Level Jacksonville Center
Wed 06:38:36 PM 30.7100 -81.0225 348° North 469 540 46,000  Level Jacksonville Center
Wed 06:39:36 PM 30.8400 -81.0561 347° North 469 540 46,000  Level Jacksonville Center
Wed 06:40:36 PM 30.9678 -81.0853 349° North 469 540 46,000  Level Jacksonville Center
Wed 06:41:36 PM 31.0914 -81.1167 348° North 469 540 46,000  Level Jacksonville Center
Wed 06:42:36 PM 31.2172 -81.1483 348° North 464 534 46,000 50 Level Jacksonville Center
Wed 06:43:36 PM 31.3550 -81.1603 356° North 453 521 46,100 350 Climbing Jacksonville Center
Wed 06:44:36 PM 31.4586 -81.1072 24° Northeast 441 507 46,700 450 Climbing Jacksonville Center
Wed 06:45:36 PM 31.5914 -81.0389 24° Northeast 455 524 47,000 150 Climbing Jacksonville Center
Wed 06:46:36 PM 31.7094 -80.9806 23° Northeast 460 529 47,000  Level Jacksonville Center
Wed 06:47:36 PM 31.8339 -80.9167 24° Northeast 466 536 47,000  Level Jacksonville Center
Wed 06:48:36 PM 31.9539 -80.8553 23° Northeast 474 545 47,000  Level Jacksonville Center
Wed 06:49:36 PM 32.0656 -80.7967 24° Northeast 474 545 47,000  Level Jacksonville Center
Wed 06:50:36 PM 32.1836 -80.7375 23° Northeast 469 540 47,000  Level Jacksonville Center
Wed 06:51:36 PM 32.3078 -80.6756 23° Northeast 469 540 47,000  Level Jacksonville Center
Wed 06:52:36 PM 32.4300 -80.6108 24° Northeast 475 547 47,000  Level Jacksonville Center
Wed 06:53:36 PM 32.5539 -80.5486 23° Northeast 475 547 47,000  Level Jacksonville Center
Wed 06:54:36 PM 32.6781 -80.4839 24° Northeast 475 547 47,000  Level Jacksonville Center
Wed 06:55:36 PM 32.8000 -80.4189 24° Northeast 475 547 47,000  Level Jacksonville Center
Wed 06:56:36 PM 32.9219 -80.3586 23° Northeast 475 547 47,000  Level Jacksonville Center
Wed 06:57:36 PM 33.0539 -80.2853 25° Northeast 488 562 47,000  Level Jacksonville Center
Wed 06:58:36 PM 33.1800 -80.2197 24° Northeast 494 568 47,000  Level Jacksonville Center
Wed 06:59:36 PM 33.3225 -80.1458 23° Northeast 501 577 47,000  Level Jacksonville Center
Wed 07:00:36 PM 33.4419 -80.0822 24° Northeast 484 557 47,000  Level Jacksonville Center
Wed 07:01:36 PM 33.5678 -80.0161 24° Northeast 479 551 47,000  Level Jacksonville Center
Wed 07:02:36 PM 33.6936 -79.9469 25° Northeast 479 551 47,000 -350 Level Jacksonville Center
Wed 07:03:36 PM 33.8172 -79.8806 24° Northeast 479 551 46,300 -1,050 Descending Jacksonville Center
Wed 07:04:36 PM 33.9469 -79.8108 24° Northeast 491 565 44,900 -1,010 Descending Jacksonville Center
Wed 07:06:52 PM 34.2214 -79.6656 24° Northeast 492 566 43,000 -792 Descending Washington Center
Wed 07:07:53 PM 34.3617 -79.5894 24° Northeast 517 595 42,300 -893 Descending Washington Center
Wed 07:08:53 PM 34.4956 -79.5128 25° Northeast 523 602 41,200 -645 Descending Washington Center
Wed 07:09:54 PM 34.6356 -79.4414 23° Northeast 528 608 41,000 -99 Descending Washington Center
Wed 07:10:54 PM 34.7758 -79.3669 24° Northeast 528 608 41,000  Level Washington Center
Wed 07:11:52 PM 34.9158 -79.2925 24° Northeast 533 613 41,000  Level Washington Center
Wed 07:12:53 PM 35.0558 -79.2178 24° Northeast 533 613 41,000  Level Washington Center
Wed 07:13:54 PM 35.1978 -79.1403 24° Northeast 538 619 41,000 -99 Level Washington Center
Wed 07:14:54 PM 35.3336 -79.0675 24° Northeast 538 619 40,800 -864 Descending Washington Center
Wed 07:15:52 PM 35.4797 -78.9894 24° Northeast 545 627 39,300 -1,563 Descending Washington Center
Wed 07:16:53 PM 35.6408 -78.9044 23° Northeast 558 642 37,700 -1,525 Descending Washington Center
Wed 07:17:54 PM 35.7869 -78.8233 24° Northeast 568 654 36,200 -857 Descending Washington Center
Wed 07:18:52 PM 35.9331 -78.7422 24° Northeast 568 654 36,000 -303 Descending Washington Center
Wed 07:19:53 PM 36.0792 -78.6581 25° Northeast 568 654 35,600 -1,525 Descending Washington Center
Wed 07:20:54 PM 36.2294 -78.5739 24° Northeast 568 654 32,900 -2,826 Descending Washington Center
Wed 07:21:54 PM 36.3714 -78.4939 24° Northeast 568 654 29,900 -2,826 Descending Washington Center
Wed 07:22:55 PM 36.5086 -78.4192 24° Northeast 554 638 27,200 -1,831 Descending Washington Center
Wed 07:23:52 PM 36.6356 -78.3433 26° Northeast 524 603 26,300 -1,282 Descending Washington Center
Wed 07:24:52 PM 36.7583 -78.2725 25° Northeast 499 574 24,700 -1,587 Descending Washington Center
Wed 07:25:53 PM 36.8786 -78.2067 24° Northeast 473 544 23,100 -1,328 Descending Washington Center
Wed 07:26:54 PM 36.9950 -78.1378 25° Northeast 467 537 22,000 -545 Descending Washington Center
Wed 07:27:54 PM 37.1108 -78.0739 24° Northeast 455 524 22,000  Level Washington Center
Wed 07:28:52 PM 37.2272 -78.0047 25° Northeast 450 518 22,000  Level Washington Center
Wed 07:29:52 PM 37.3453 -77.9353 25° Northeast 450 518 22,000  Level Washington Center
Wed 07:30:53 PM 37.4614 -77.8681 25° Northeast 450 518 22,000 -541 Level Washington Center
Wed 07:31:54 PM 37.5794 -77.8008 24° Northeast 450 518 20,900 -1,613 Descending Washington Center
Wed 07:32:52 PM 37.6975 -77.7308 25° Northeast 450 518 18,800 -2,067 Descending Washington Center
Wed 07:33:53 PM 37.8050 -77.6656 26° Northeast 450 518 16,800 -1,983 Descending Washington Center
Wed 07:34:53 PM 37.9144 -77.6053 23° Northeast 438 504 14,800 -1,884 Descending Washington Center
Wed 07:35:54 PM 38.0197 -77.5397 26° Northeast 425 489 13,000 -1,587 Descending Washington Center
Wed 07:36:54 PM 38.1039 -77.4942 23° Northeast 401 461 11,600 -1,500 Descending Washington Center
Wed 07:37:54 PM 38.1878 -77.4647 15° North 362 417 10,000 -1,017 Descending Washington Center
Wed 07:38:52 PM 38.2672 -77.4589 North 310 357 9,600 -966 Descending Washington Center
Wed 07:39:52 PM 38.3444 -77.4581 360° North 292 336 8,100 -1,537 Descending Washington Center
Wed 07:40:53 PM 38.4172 -77.4547 North 270 311 6,500 -1,574 Descending Washington Center
Wed 07:41:54 PM 38.4903 -77.4511 North 259 298 4,900 -1,240 Descending Washington Center
Wed 07:42:54 PM 38.5656 -77.4478 North 259 298 4,000 -508 Descending Washington Center
Wed 07:43:52 PM 38.6386 -77.4469 North 259 298 3,900 -454 Descending Washington Center
Wed 07:44:53 PM 38.7011 -77.4431 North 245 282 3,100 -492 Descending Washington Center
Wed 07:45:54 PM 38.7658 -77.4419 North 229 264 2,900 -484 Descending Washington Center
Wed 07:46:57 PM 38.8333 -77.4333 North 192 221 2,100 -780 Descending Potomac TRACON
Wed 07:47:57 PM 38.8833 -77.4333 360° North 147 169 1,300 -800 Descending Potomac TRACON
Wed 07:49:00 PM 38.9474 -77.4599 11° North  Level Estimated
Wed 07:56:00 PM 38.9474 -77.4599 195° South  Level Estimated
Wed 07:57:00 PM 38.9474 -77.4599 195° South  Level Estimated
Wed 07:58:00 PM 38.9474 -77.4599 195° South  Level Estimated
Wed 07:59:00 PM 38.9474 -77.4599 195° South  Level Estimated

Login

Don't have an account? Register now (free) for customized features, flight alerts, and more!